sensor_id;sensor_type;location;lat;lon;timestamp;P1;durP1;ratioP1;P2;durP2;ratioP2
22072;SDS011;11202;50.916;4.698;2022-12-10T00:01:06;70.03;;;29.10;;
22072;SDS011;11202;50.916;4.698;2022-12-10T00:03:36;69.20;;;28.70;;
22072;SDS011;11202;50.916;4.698;2022-12-10T00:06:06;69.20;;;27.70;;
22072;SDS011;11202;50.916;4.698;2022-12-10T00:08:53;78.95;;;31.50;;
22072;SDS011;11202;50.916;4.698;2022-12-10T00:11:23;73.30;;;30.15;;
22072;SDS011;11202;50.916;4.698;2022-12-10T00:54:30;66.50;;;27.63;;
22072;SDS011;11202;50.916;4.698;2022-12-10T01:02:06;66.13;;;28.33;;
22072;SDS011;11202;50.916;4.698;2022-12-10T01:04:32;66.80;;;27.75;;
22072;SDS011;11202;50.916;4.698;2022-12-10T01:09:33;68.78;;;27.75;;
22072;SDS011;11202;50.916;4.698;2022-12-10T01:12:09;70.75;;;27.90;;
22072;SDS011;11202;50.916;4.698;2022-12-10T01:46:26;68.85;;;26.23;;
22072;SDS011;11202;50.916;4.698;2022-12-10T05:49:56;109.05;;;33.33;;
22072;SDS011;11202;50.916;4.698;2022-12-10T05:52:33;107.10;;;33.35;;
22072;SDS011;11202;50.916;4.698;2022-12-10T05:54:59;109.25;;;32.42;;
22072;SDS011;11202;50.916;4.698;2022-12-10T05:57:25;99.05;;;30.70;;
22072;SDS011;11202;50.916;4.698;2022-12-10T06:18:00;121.55;;;36.17;;
22072;SDS011;11202;50.916;4.698;2022-12-10T06:23:01;123.88;;;36.83;;
22072;SDS011;11202;50.916;4.698;2022-12-10T06:25:27;123.95;;;36.22;;
22072;SDS011;11202;50.916;4.698;2022-12-10T06:30:42;109.57;;;32.40;;
22072;SDS011;11202;50.916;4.698;2022-12-10T06:38:19;119.07;;;31.85;;
22072;SDS011;11202;50.916;4.698;2022-12-10T06:43:23;164.70;;;33.58;;
22072;SDS011;11202;50.916;4.698;2022-12-10T06:45:52;117.93;;;32.13;;
22072;SDS011;11202;50.916;4.698;2022-12-10T06:48:17;127.97;;;33.65;;
22072;SDS011;11202;50.916;4.698;2022-12-10T07:03:52;134.02;;;37.85;;
22072;SDS011;11202;50.916;4.698;2022-12-10T07:06:19;136.02;;;36.03;;
22072;SDS011;11202;50.916;4.698;2022-12-10T07:08:46;117.72;;;33.47;;
22072;SDS011;11202;50.916;4.698;2022-12-10T07:11:13;109.43;;;33.90;;
22072;SDS011;11202;50.916;4.698;2022-12-10T07:18:50;154.43;;;41.45;;
22072;SDS011;11202;50.916;4.698;2022-12-10T07:45:07;155.23;;;35.40;;
22072;SDS011;11202;50.916;4.698;2022-12-10T07:50:09;139.18;;;33.47;;
22072;SDS011;11202;50.916;4.698;2022-12-10T07:52:34;155.65;;;37.92;;
22072;SDS011;11202;50.916;4.698;2022-12-10T08:00:06;155.13;;;35.47;;
22072;SDS011;11202;50.916;4.698;2022-12-10T08:02:32;159.03;;;35.23;;
22072;SDS011;11202;50.916;4.698;2022-12-10T08:04:58;150.55;;;35.25;;
22072;SDS011;11202;50.916;4.698;2022-12-10T08:07:24;154.90;;;35.42;;
22072;SDS011;11202;50.916;4.698;2022-12-10T08:09:52;157.18;;;36.15;;
22072;SDS011;11202;50.916;4.698;2022-12-10T08:12:20;143.45;;;34.55;;
22072;SDS011;11202;50.916;4.698;2022-12-10T08:25:08;146.95;;;34.42;;
22072;SDS011;11202;50.916;4.698;2022-12-10T08:30:09;166.05;;;31.52;;
22072;SDS011;11202;50.916;4.698;2022-12-10T08:35:10;143.20;;;32.78;;
22072;SDS011;11202;50.916;4.698;2022-12-10T08:45:22;146.13;;;32.38;;
22072;SDS011;11202;50.916;4.698;2022-12-10T08:47:48;132.73;;;32.25;;
22072;SDS011;11202;50.916;4.698;2022-12-10T08:50:14;141.52;;;31.63;;
22072;SDS011;11202;50.916;4.698;2022-12-10T08:52:40;134.02;;;30.25;;
22072;SDS011;11202;50.916;4.698;2022-12-10T08:55:09;154.35;;;32.53;;
22072;SDS011;11202;50.916;4.698;2022-12-10T08:57:35;134.13;;;30.38;;
22072;SDS011;11202;50.916;4.698;2022-12-10T09:00:01;152.88;;;32.97;;
22072;SDS011;11202;50.916;4.698;2022-12-10T09:02:28;146.23;;;31.55;;
22072;SDS011;11202;50.916;4.698;2022-12-10T09:04:54;132.02;;;29.67;;
22072;SDS011;11202;50.916;4.698;2022-12-10T09:07:22;149.70;;;29.27;;
22072;SDS011;11202;50.916;4.698;2022-12-10T09:09:48;115.18;;;29.45;;
22072;SDS011;11202;50.916;4.698;2022-12-10T09:12:16;126.85;;;29.35;;
22072;SDS011;11202;50.916;4.698;2022-12-10T09:14:41;119.30;;;29.42;;
22072;SDS011;11202;50.916;4.698;2022-12-10T09:17:07;119.63;;;30.63;;
22072;SDS011;11202;50.916;4.698;2022-12-10T09:19:33;115.18;;;28.55;;
22072;SDS011;11202;50.916;4.698;2022-12-10T09:22:01;109.60;;;29.02;;
22072;SDS011;11202;50.916;4.698;2022-12-10T09:24:28;110.10;;;27.17;;
22072;SDS011;11202;50.916;4.698;2022-12-10T09:26:53;102.32;;;25.67;;
22072;SDS011;11202;50.916;4.698;2022-12-10T09:29:19;106.28;;;26.35;;
22072;SDS011;11202;50.916;4.698;2022-12-10T09:31:50;107.05;;;27.55;;
22072;SDS011;11202;50.916;4.698;2022-12-10T09:34:16;112.38;;;28.27;;
22072;SDS011;11202;50.916;4.698;2022-12-10T09:36:42;104.13;;;25.45;;
22072;SDS011;11202;50.916;4.698;2022-12-10T09:39:08;109.82;;;27.98;;
22072;SDS011;11202;50.916;4.698;2022-12-10T09:47:04;112.53;;;25.42;;
22072;SDS011;11202;50.916;4.698;2022-12-10T09:52:32;83.68;;;22.17;;
22072;SDS011;11202;50.916;4.698;2022-12-10T09:55:08;97.57;;;23.85;;
22072;SDS011;11202;50.916;4.698;2022-12-10T09:57:49;97.78;;;25.17;;
22072;SDS011;11202;50.916;4.698;2022-12-10T10:00:25;86.32;;;24.67;;
22072;SDS011;11202;50.916;4.698;2022-12-10T10:02:56;89.80;;;24.85;;
22072;SDS011;11202;50.916;4.698;2022-12-10T10:05:29;104.18;;;27.35;;
22072;SDS011;11202;50.916;4.698;2022-12-10T10:07:59;95.35;;;25.25;;
22072;SDS011;11202;50.916;4.698;2022-12-10T10:10:29;114.53;;;26.63;;
22072;SDS011;11202;50.916;4.698;2022-12-10T10:13:01;107.57;;;27.55;;
22072;SDS011;11202;50.916;4.698;2022-12-10T10:15:43;104.53;;;27.65;;
22072;SDS011;11202;50.916;4.698;2022-12-10T10:20:42;112.95;;;28.15;;
22072;SDS011;11202;50.916;4.698;2022-12-10T10:23:08;103.88;;;27.85;;
22072;SDS011;11202;50.916;4.698;2022-12-10T10:25:38;102.78;;;29.08;;
22072;SDS011;11202;50.916;4.698;2022-12-10T10:28:04;104.28;;;26.50;;
22072;SDS011;11202;50.916;4.698;2022-12-10T10:30:30;111.13;;;29.88;;
22072;SDS011;11202;50.916;4.698;2022-12-10T10:32:56;96.47;;;24.90;;
22072;SDS011;11202;50.916;4.698;2022-12-10T10:35:32;99.57;;;26.90;;
22072;SDS011;11202;50.916;4.698;2022-12-10T10:38:07;104.40;;;26.10;;
22072;SDS011;11202;50.916;4.698;2022-12-10T10:40:45;110.60;;;29.00;;
22072;SDS011;11202;50.916;4.698;2022-12-10T10:43:21;95.85;;;28.25;;
22072;SDS011;11202;50.916;4.698;2022-12-10T10:46:02;103.22;;;25.60;;
22072;SDS011;11202;50.916;4.698;2022-12-10T10:48:31;96.50;;;26.13;;
22072;SDS011;11202;50.916;4.698;2022-12-10T10:56:15;96.28;;;27.65;;
22072;SDS011;11202;50.916;4.698;2022-12-10T11:01:18;100.43;;;28.60;;
22072;SDS011;11202;50.916;4.698;2022-12-10T11:04:02;103.03;;;27.00;;
22072;SDS011;11202;50.916;4.698;2022-12-10T11:06:28;107.57;;;28.67;;
22072;SDS011;11202;50.916;4.698;2022-12-10T11:08:56;99.68;;;27.58;;
22072;SDS011;11202;50.916;4.698;2022-12-10T11:11:33;101.85;;;29.30;;
22072;SDS011;11202;50.916;4.698;2022-12-10T11:16:40;111.68;;;29.50;;
22072;SDS011;11202;50.916;4.698;2022-12-10T11:19:08;108.75;;;29.83;;
22072;SDS011;11202;50.916;4.698;2022-12-10T11:21:47;110.65;;;31.42;;
22072;SDS011;11202;50.916;4.698;2022-12-10T11:24:15;93.50;;;26.40;;
22072;SDS011;11202;50.916;4.698;2022-12-10T11:26:57;108.57;;;31.25;;
22072;SDS011;11202;50.916;4.698;2022-12-10T11:35:16;101.57;;;29.35;;
22072;SDS011;11202;50.916;4.698;2022-12-10T11:49:42;97.25;;;28.85;;
22072;SDS011;11202;50.916;4.698;2022-12-10T11:52:36;104.20;;;28.80;;
22072;SDS011;11202;50.916;4.698;2022-12-10T12:04:24;97.20;;;28.05;;
22072;SDS011;11202;50.916;4.698;2022-12-10T12:09:56;92.40;;;28.02;;
22072;SDS011;11202;50.916;4.698;2022-12-10T12:12:49;98.38;;;29.55;;
22072;SDS011;11202;50.916;4.698;2022-12-10T12:15:40;88.78;;;27.40;;
22072;SDS011;11202;50.916;4.698;2022-12-10T12:19:05;92.28;;;28.92;;
22072;SDS011;11202;50.916;4.698;2022-12-10T12:21:24;91.20;;;28.65;;
22072;SDS011;11202;50.916;4.698;2022-12-10T12:26:58;85.93;;;25.77;;
22072;SDS011;11202;50.916;4.698;2022-12-10T12:29:41;82.28;;;25.98;;
22072;SDS011;11202;50.916;4.698;2022-12-10T12:32:25;85.85;;;28.02;;
22072;SDS011;11202;50.916;4.698;2022-12-10T12:34:58;84.88;;;26.48;;
22072;SDS011;11202;50.916;4.698;2022-12-10T12:37:34;98.00;;;28.88;;
22072;SDS011;11202;50.916;4.698;2022-12-10T12:42:59;93.65;;;27.98;;
22072;SDS011;11202;50.916;4.698;2022-12-10T12:45:41;92.25;;;28.52;;
22072;SDS011;11202;50.916;4.698;2022-12-10T12:51:11;87.47;;;27.75;;
22072;SDS011;11202;50.916;4.698;2022-12-10T12:53:59;90.88;;;28.38;;
22072;SDS011;11202;50.916;4.698;2022-12-10T12:59:32;88.43;;;27.08;;
22072;SDS011;11202;50.916;4.698;2022-12-10T13:07:26;82.28;;;25.50;;
22072;SDS011;11202;50.916;4.698;2022-12-10T13:12:47;84.80;;;27.65;;
22072;SDS011;11202;50.916;4.698;2022-12-10T13:15:20;93.93;;;28.60;;
22072;SDS011;11202;50.916;4.698;2022-12-10T13:18:39;79.10;;;26.10;;
22072;SDS011;11202;50.916;4.698;2022-12-10T13:23:50;85.80;;;27.30;;
22072;SDS011;11202;50.916;4.698;2022-12-10T13:26:23;85.72;;;28.42;;
22072;SDS011;11202;50.916;4.698;2022-12-10T13:28:54;91.32;;;27.20;;
22072;SDS011;11202;50.916;4.698;2022-12-10T13:31:35;81.68;;;27.50;;
22072;SDS011;11202;50.916;4.698;2022-12-10T13:50:04;92.35;;;31.05;;
22072;SDS011;11202;50.916;4.698;2022-12-10T13:55:28;80.10;;;25.75;;
22072;SDS011;11202;50.916;4.698;2022-12-10T14:01:00;85.05;;;27.60;;
22072;SDS011;11202;50.916;4.698;2022-12-10T14:06:34;100.88;;;32.25;;
22072;SDS011;11202;50.916;4.698;2022-12-10T14:09:05;82.43;;;26.58;;
22072;SDS011;11202;50.916;4.698;2022-12-10T14:11:40;99.43;;;34.70;;
22072;SDS011;11202;50.916;4.698;2022-12-10T14:14:14;86.97;;;29.25;;
22072;SDS011;11202;50.916;4.698;2022-12-10T14:19:18;71.72;;;25.13;;
22072;SDS011;11202;50.916;4.698;2022-12-10T14:21:44;78.10;;;25.15;;
22072;SDS011;11202;50.916;4.698;2022-12-10T14:27:13;79.57;;;27.20;;
22072;SDS011;11202;50.916;4.698;2022-12-10T14:29:46;81.03;;;26.63;;
22072;SDS011;11202;50.916;4.698;2022-12-10T14:32:14;72.70;;;26.00;;
22072;SDS011;11202;50.916;4.698;2022-12-10T14:34:42;87.30;;;27.85;;
22072;SDS011;11202;50.916;4.698;2022-12-10T14:37:13;77.97;;;27.02;;
22072;SDS011;11202;50.916;4.698;2022-12-10T14:39:39;95.13;;;36.00;;
22072;SDS011;11202;50.916;4.698;2022-12-10T14:42:05;77.93;;;26.17;;
22072;SDS011;11202;50.916;4.698;2022-12-10T14:44:34;74.30;;;26.52;;
22072;SDS011;11202;50.916;4.698;2022-12-10T14:47:12;82.25;;;26.33;;
22072;SDS011;11202;50.916;4.698;2022-12-10T14:49:45;83.82;;;27.02;;
22072;SDS011;11202;50.916;4.698;2022-12-10T14:52:30;79.87;;;27.60;;
22072;SDS011;11202;50.916;4.698;2022-12-10T14:55:00;80.70;;;27.05;;
22072;SDS011;11202;50.916;4.698;2022-12-10T14:57:37;77.70;;;27.23;;
22072;SDS011;11202;50.916;4.698;2022-12-10T15:02:40;82.53;;;26.83;;
22072;SDS011;11202;50.916;4.698;2022-12-10T15:05:10;81.07;;;26.67;;
22072;SDS011;11202;50.916;4.698;2022-12-10T15:07:57;75.63;;;25.88;;
22072;SDS011;11202;50.916;4.698;2022-12-10T15:10:54;82.03;;;27.40;;
22072;SDS011;11202;50.916;4.698;2022-12-10T15:15:59;85.10;;;27.30;;
22072;SDS011;11202;50.916;4.698;2022-12-10T15:18:27;85.40;;;30.08;;
22072;SDS011;11202;50.916;4.698;2022-12-10T15:21:04;94.43;;;30.13;;
22072;SDS011;11202;50.916;4.698;2022-12-10T15:28:33;90.15;;;28.90;;
22072;SDS011;11202;50.916;4.698;2022-12-10T15:31:20;87.25;;;30.15;;
22072;SDS011;11202;50.916;4.698;2022-12-10T15:36:31;97.25;;;28.02;;
22072;SDS011;11202;50.916;4.698;2022-12-10T15:41:47;93.93;;;28.42;;
22072;SDS011;11202;50.916;4.698;2022-12-10T15:46:58;76.78;;;25.75;;
22072;SDS011;11202;50.916;4.698;2022-12-10T15:49:28;77.70;;;26.23;;
22072;SDS011;11202;50.916;4.698;2022-12-10T15:51:54;74.32;;;24.20;;
22072;SDS011;11202;50.916;4.698;2022-12-10T15:54:22;75.53;;;24.27;;
22072;SDS011;11202;50.916;4.698;2022-12-10T15:56:51;83.85;;;25.90;;
22072;SDS011;11202;50.916;4.698;2022-12-10T15:59:16;80.78;;;25.50;;
22072;SDS011;11202;50.916;4.698;2022-12-10T16:01:42;75.78;;;26.17;;
22072;SDS011;11202;50.916;4.698;2022-12-10T16:04:10;72.75;;;25.00;;
22072;SDS011;11202;50.916;4.698;2022-12-10T16:06:36;68.40;;;23.23;;
22072;SDS011;11202;50.916;4.698;2022-12-10T16:09:02;72.10;;;23.25;;
22072;SDS011;11202;50.916;4.698;2022-12-10T16:11:28;70.95;;;23.25;;
22072;SDS011;11202;50.916;4.698;2022-12-10T16:13:56;69.35;;;23.85;;
22072;SDS011;11202;50.916;4.698;2022-12-10T16:16:22;70.38;;;23.77;;
22072;SDS011;11202;50.916;4.698;2022-12-10T16:18:49;73.05;;;23.50;;
22072;SDS011;11202;50.916;4.698;2022-12-10T16:21:15;74.20;;;25.50;;
22072;SDS011;11202;50.916;4.698;2022-12-10T16:23:41;71.85;;;24.25;;
22072;SDS011;11202;50.916;4.698;2022-12-10T16:26:19;65.78;;;22.88;;
22072;SDS011;11202;50.916;4.698;2022-12-10T16:28:48;70.05;;;21.90;;
22072;SDS011;11202;50.916;4.698;2022-12-10T16:31:16;77.70;;;26.17;;
22072;SDS011;11202;50.916;4.698;2022-12-10T16:33:44;79.40;;;23.95;;
22072;SDS011;11202;50.916;4.698;2022-12-10T16:36:10;79.32;;;26.77;;
22072;SDS011;11202;50.916;4.698;2022-12-10T16:38:37;69.10;;;23.40;;
22072;SDS011;11202;50.916;4.698;2022-12-10T16:41:03;69.03;;;22.98;;
22072;SDS011;11202;50.916;4.698;2022-12-10T16:43:36;78.88;;;27.15;;
22072;SDS011;11202;50.916;4.698;2022-12-10T16:46:02;73.82;;;25.88;;
22072;SDS011;11202;50.916;4.698;2022-12-10T16:48:27;73.65;;;23.63;;
22072;SDS011;11202;50.916;4.698;2022-12-10T16:50:53;90.13;;;28.20;;
22072;SDS011;11202;50.916;4.698;2022-12-10T16:53:26;75.38;;;24.13;;
22072;SDS011;11202;50.916;4.698;2022-12-10T16:55:54;76.80;;;25.23;;
22072;SDS011;11202;50.916;4.698;2022-12-10T16:58:23;76.47;;;26.63;;
22072;SDS011;11202;50.916;4.698;2022-12-10T17:00:50;82.20;;;27.00;;
22072;SDS011;11202;50.916;4.698;2022-12-10T17:03:18;78.78;;;27.10;;
22072;SDS011;11202;50.916;4.698;2022-12-10T17:05:52;91.65;;;28.65;;
22072;SDS011;11202;50.916;4.698;2022-12-10T17:08:25;75.10;;;26.92;;
22072;SDS011;11202;50.916;4.698;2022-12-10T17:10:53;77.95;;;26.75;;
22072;SDS011;11202;50.916;4.698;2022-12-10T17:13:39;81.32;;;27.60;;
22072;SDS011;11202;50.916;4.698;2022-12-10T17:16:19;85.75;;;28.55;;
22072;SDS011;11202;50.916;4.698;2022-12-10T17:18:48;86.85;;;29.55;;
22072;SDS011;11202;50.916;4.698;2022-12-10T17:21:14;95.13;;;30.95;;
22072;SDS011;11202;50.916;4.698;2022-12-10T17:23:39;89.78;;;27.20;;
22072;SDS011;11202;50.916;4.698;2022-12-10T17:26:06;96.97;;;33.75;;
22072;SDS011;11202;50.916;4.698;2022-12-10T17:28:32;91.63;;;29.77;;
22072;SDS011;11202;50.916;4.698;2022-12-10T17:30:58;95.28;;;32.97;;
22072;SDS011;11202;50.916;4.698;2022-12-10T17:33:26;104.43;;;34.58;;
22072;SDS011;11202;50.916;4.698;2022-12-10T17:35:52;83.80;;;29.17;;
22072;SDS011;11202;50.916;4.698;2022-12-10T17:38:23;85.32;;;29.73;;
22072;SDS011;11202;50.916;4.698;2022-12-10T17:40:49;92.03;;;30.40;;
22072;SDS011;11202;50.916;4.698;2022-12-10T17:43:16;81.43;;;28.15;;
22072;SDS011;11202;50.916;4.698;2022-12-10T17:45:42;109.43;;;39.13;;
22072;SDS011;11202;50.916;4.698;2022-12-10T17:48:12;92.47;;;29.92;;
22072;SDS011;11202;50.916;4.698;2022-12-10T17:50:39;87.40;;;29.48;;
22072;SDS011;11202;50.916;4.698;2022-12-10T17:53:08;84.18;;;30.27;;
22072;SDS011;11202;50.916;4.698;2022-12-10T17:55:35;86.85;;;29.60;;
22072;SDS011;11202;50.916;4.698;2022-12-10T17:58:02;81.22;;;29.38;;
22072;SDS011;11202;50.916;4.698;2022-12-10T18:00:30;78.57;;;28.90;;
22072;SDS011;11202;50.916;4.698;2022-12-10T18:02:57;86.18;;;28.35;;
22072;SDS011;11202;50.916;4.698;2022-12-10T18:05:24;80.07;;;29.45;;
22072;SDS011;11202;50.916;4.698;2022-12-10T18:07:51;87.75;;;29.48;;
22072;SDS011;11202;50.916;4.698;2022-12-10T18:10:21;89.03;;;30.20;;
22072;SDS011;11202;50.916;4.698;2022-12-10T18:12:49;89.95;;;31.63;;
22072;SDS011;11202;50.916;4.698;2022-12-10T18:15:18;87.38;;;31.40;;
22072;SDS011;11202;50.916;4.698;2022-12-10T18:17:44;92.35;;;31.02;;
22072;SDS011;11202;50.916;4.698;2022-12-10T18:20:15;82.47;;;28.88;;
22072;SDS011;11202;50.916;4.698;2022-12-10T18:22:42;86.47;;;29.73;;
22072;SDS011;11202;50.916;4.698;2022-12-10T18:25:08;82.50;;;29.65;;
22072;SDS011;11202;50.916;4.698;2022-12-10T18:27:34;86.93;;;29.83;;
22072;SDS011;11202;50.916;4.698;2022-12-10T18:30:01;88.80;;;29.60;;
22072;SDS011;11202;50.916;4.698;2022-12-10T18:32:29;86.93;;;31.58;;
22072;SDS011;11202;50.916;4.698;2022-12-10T18:34:55;83.60;;;30.02;;
22072;SDS011;11202;50.916;4.698;2022-12-10T18:37:20;81.18;;;29.73;;
22072;SDS011;11202;50.916;4.698;2022-12-10T18:39:46;83.32;;;30.63;;
22072;SDS011;11202;50.916;4.698;2022-12-10T18:42:12;93.10;;;32.85;;
22072;SDS011;11202;50.916;4.698;2022-12-10T18:44:37;88.18;;;31.25;;
22072;SDS011;11202;50.916;4.698;2022-12-10T18:47:04;81.50;;;29.60;;
22072;SDS011;11202;50.916;4.698;2022-12-10T18:49:33;83.10;;;29.33;;
22072;SDS011;11202;50.916;4.698;2022-12-10T18:51:59;83.40;;;29.70;;
22072;SDS011;11202;50.916;4.698;2022-12-10T18:54:28;81.35;;;29.95;;
22072;SDS011;11202;50.916;4.698;2022-12-10T18:56:56;72.10;;;28.33;;
22072;SDS011;11202;50.916;4.698;2022-12-10T18:59:22;84.22;;;28.95;;
22072;SDS011;11202;50.916;4.698;2022-12-10T19:01:50;71.03;;;28.42;;
22072;SDS011;11202;50.916;4.698;2022-12-10T19:04:15;72.75;;;29.75;;
22072;SDS011;11202;50.916;4.698;2022-12-10T19:06:41;71.30;;;29.17;;
22072;SDS011;11202;50.916;4.698;2022-12-10T19:09:17;79.13;;;29.90;;
22072;SDS011;11202;50.916;4.698;2022-12-10T19:11:43;72.05;;;28.20;;
22072;SDS011;11202;50.916;4.698;2022-12-10T19:14:11;80.70;;;30.17;;
22072;SDS011;11202;50.916;4.698;2022-12-10T19:16:38;74.70;;;27.90;;
22072;SDS011;11202;50.916;4.698;2022-12-10T19:19:04;67.65;;;28.15;;
22072;SDS011;11202;50.916;4.698;2022-12-10T19:21:31;69.22;;;26.67;;
22072;SDS011;11202;50.916;4.698;2022-12-10T19:23:59;68.75;;;26.30;;
22072;SDS011;11202;50.916;4.698;2022-12-10T19:26:29;72.38;;;28.73;;
22072;SDS011;11202;50.916;4.698;2022-12-10T19:29:01;72.45;;;26.33;;
22072;SDS011;11202;50.916;4.698;2022-12-10T19:31:33;66.53;;;27.10;;
22072;SDS011;11202;50.916;4.698;2022-12-10T19:33:59;64.03;;;25.17;;
22072;SDS011;11202;50.916;4.698;2022-12-10T19:36:29;65.43;;;26.45;;
22072;SDS011;11202;50.916;4.698;2022-12-10T19:39:00;66.22;;;26.38;;
22072;SDS011;11202;50.916;4.698;2022-12-10T19:41:26;69.90;;;26.00;;
22072;SDS011;11202;50.916;4.698;2022-12-10T19:43:52;64.35;;;26.02;;
22072;SDS011;11202;50.916;4.698;2022-12-10T19:46:22;56.75;;;23.92;;
22072;SDS011;11202;50.916;4.698;2022-12-10T19:48:50;62.55;;;23.80;;
22072;SDS011;11202;50.916;4.698;2022-12-10T19:51:16;61.08;;;25.08;;
22072;SDS011;11202;50.916;4.698;2022-12-10T19:53:42;63.03;;;24.02;;
22072;SDS011;11202;50.916;4.698;2022-12-10T19:56:31;61.40;;;24.02;;
22072;SDS011;11202;50.916;4.698;2022-12-10T19:58:57;61.03;;;23.85;;
22072;SDS011;11202;50.916;4.698;2022-12-10T20:01:24;65.63;;;26.38;;
22072;SDS011;11202;50.916;4.698;2022-12-10T20:03:51;72.32;;;25.02;;
22072;SDS011;11202;50.916;4.698;2022-12-10T20:06:21;73.07;;;27.63;;
22072;SDS011;11202;50.916;4.698;2022-12-10T20:08:54;62.15;;;25.67;;
22072;SDS011;11202;50.916;4.698;2022-12-10T20:11:20;68.80;;;26.23;;
22072;SDS011;11202;50.916;4.698;2022-12-10T20:13:46;69.30;;;27.00;;
22072;SDS011;11202;50.916;4.698;2022-12-10T20:16:15;67.88;;;25.75;;
22072;SDS011;11202;50.916;4.698;2022-12-10T20:18:44;65.88;;;24.77;;
22072;SDS011;11202;50.916;4.698;2022-12-10T20:21:11;66.38;;;25.88;;
22072;SDS011;11202;50.916;4.698;2022-12-10T20:23:37;63.42;;;24.75;;
22072;SDS011;11202;50.916;4.698;2022-12-10T20:26:03;58.55;;;23.20;;
22072;SDS011;11202;50.916;4.698;2022-12-10T20:28:33;59.58;;;22.70;;
22072;SDS011;11202;50.916;4.698;2022-12-10T20:30:58;54.20;;;21.83;;
22072;SDS011;11202;50.916;4.698;2022-12-10T20:33:27;52.75;;;21.98;;
22072;SDS011;11202;50.916;4.698;2022-12-10T20:35:53;53.67;;;22.13;;
22072;SDS011;11202;50.916;4.698;2022-12-10T20:38:18;53.72;;;22.80;;
22072;SDS011;11202;50.916;4.698;2022-12-10T20:40:44;55.95;;;24.25;;
22072;SDS011;11202;50.916;4.698;2022-12-10T20:43:09;52.25;;;22.27;;
22072;SDS011;11202;50.916;4.698;2022-12-10T20:45:35;53.08;;;22.88;;
22072;SDS011;11202;50.916;4.698;2022-12-10T20:48:01;54.10;;;20.70;;
22072;SDS011;11202;50.916;4.698;2022-12-10T20:50:26;54.80;;;21.50;;
22072;SDS011;11202;50.916;4.698;2022-12-10T20:52:52;50.35;;;23.08;;
22072;SDS011;11202;50.916;4.698;2022-12-10T20:55:18;49.80;;;21.00;;
22072;SDS011;11202;50.916;4.698;2022-12-10T20:57:43;47.47;;;20.42;;
22072;SDS011;11202;50.916;4.698;2022-12-10T21:00:19;57.03;;;21.58;;
22072;SDS011;11202;50.916;4.698;2022-12-10T21:02:46;45.95;;;21.00;;
22072;SDS011;11202;50.916;4.698;2022-12-10T21:05:13;55.85;;;21.45;;
22072;SDS011;11202;50.916;4.698;2022-12-10T21:07:39;50.92;;;19.58;;
22072;SDS011;11202;50.916;4.698;2022-12-10T21:10:06;42.50;;;17.58;;
22072;SDS011;11202;50.916;4.698;2022-12-10T21:12:57;45.72;;;21.20;;
22072;SDS011;11202;50.916;4.698;2022-12-10T21:15:23;45.70;;;18.98;;
22072;SDS011;11202;50.916;4.698;2022-12-10T21:17:48;35.42;;;14.18;;
22072;SDS011;11202;50.916;4.698;2022-12-10T21:20:14;39.15;;;16.85;;
22072;SDS011;11202;50.916;4.698;2022-12-10T21:22:42;47.97;;;19.67;;
22072;SDS011;11202;50.916;4.698;2022-12-10T21:25:11;43.53;;;19.60;;
22072;SDS011;11202;50.916;4.698;2022-12-10T21:27:37;48.75;;;20.80;;
22072;SDS011;11202;50.916;4.698;2022-12-10T21:30:03;47.10;;;20.52;;
22072;SDS011;11202;50.916;4.698;2022-12-10T21:32:29;45.40;;;16.73;;
22072;SDS011;11202;50.916;4.698;2022-12-10T21:34:55;44.92;;;17.83;;
22072;SDS011;11202;50.916;4.698;2022-12-10T21:37:21;43.97;;;19.98;;
22072;SDS011;11202;50.916;4.698;2022-12-10T21:39:47;52.17;;;20.92;;
22072;SDS011;11202;50.916;4.698;2022-12-10T21:42:15;37.15;;;17.08;;
22072;SDS011;11202;50.916;4.698;2022-12-10T21:45:04;40.05;;;19.08;;
22072;SDS011;11202;50.916;4.698;2022-12-10T21:47:30;34.20;;;15.00;;
22072;SDS011;11202;50.916;4.698;2022-12-10T21:49:55;50.50;;;21.35;;
22072;SDS011;11202;50.916;4.698;2022-12-10T21:52:21;49.90;;;20.73;;
22072;SDS011;11202;50.916;4.698;2022-12-10T21:54:47;44.85;;;18.25;;
22072;SDS011;11202;50.916;4.698;2022-12-10T21:57:14;48.92;;;17.55;;
22072;SDS011;11202;50.916;4.698;2022-12-10T21:59:44;41.63;;;16.63;;
22072;SDS011;11202;50.916;4.698;2022-12-10T22:02:09;43.25;;;19.45;;
22072;SDS011;11202;50.916;4.698;2022-12-10T22:04:35;54.33;;;21.15;;
22072;SDS011;11202;50.916;4.698;2022-12-10T22:07:01;41.05;;;16.25;;
22072;SDS011;11202;50.916;4.698;2022-12-10T22:09:27;38.42;;;17.05;;
22072;SDS011;11202;50.916;4.698;2022-12-10T22:11:56;25.67;;;12.23;;
22072;SDS011;11202;50.916;4.698;2022-12-10T22:14:22;39.22;;;18.23;;
22072;SDS011;11202;50.916;4.698;2022-12-10T22:16:47;32.17;;;14.85;;
22072;SDS011;11202;50.916;4.698;2022-12-10T22:19:13;36.50;;;17.00;;
22072;SDS011;11202;50.916;4.698;2022-12-10T22:21:39;42.25;;;17.95;;
22072;SDS011;11202;50.916;4.698;2022-12-10T22:24:06;39.13;;;16.38;;
22072;SDS011;11202;50.916;4.698;2022-12-10T22:26:32;46.60;;;19.95;;
22072;SDS011;11202;50.916;4.698;2022-12-10T22:28:58;47.60;;;19.77;;
22072;SDS011;11202;50.916;4.698;2022-12-10T22:31:23;48.60;;;20.00;;
22072;SDS011;11202;50.916;4.698;2022-12-10T22:33:52;41.50;;;19.52;;
22072;SDS011;11202;50.916;4.698;2022-12-10T22:36:19;47.72;;;20.75;;
22072;SDS011;11202;50.916;4.698;2022-12-10T22:38:44;45.10;;;19.58;;
22072;SDS011;11202;50.916;4.698;2022-12-10T22:41:11;51.15;;;20.27;;
22072;SDS011;11202;50.916;4.698;2022-12-10T22:43:38;48.28;;;20.60;;
22072;SDS011;11202;50.916;4.698;2022-12-10T22:46:04;46.13;;;18.95;;
22072;SDS011;11202;50.916;4.698;2022-12-10T22:48:30;48.35;;;18.65;;
22072;SDS011;11202;50.916;4.698;2022-12-10T22:51:01;52.05;;;21.50;;
22072;SDS011;11202;50.916;4.698;2022-12-10T22:53:30;46.85;;;21.33;;
22072;SDS011;11202;50.916;4.698;2022-12-10T22:55:58;44.08;;;19.45;;
22072;SDS011;11202;50.916;4.698;2022-12-10T22:58:26;49.50;;;21.52;;
22072;SDS011;11202;50.916;4.698;2022-12-10T23:00:52;49.33;;;19.83;;
22072;SDS011;11202;50.916;4.698;2022-12-10T23:03:19;39.50;;;17.13;;
22072;SDS011;11202;50.916;4.698;2022-12-10T23:05:45;45.65;;;19.98;;
22072;SDS011;11202;50.916;4.698;2022-12-10T23:08:14;45.00;;;19.25;;
22072;SDS011;11202;50.916;4.698;2022-12-10T23:10:40;41.63;;;16.52;;
22072;SDS011;11202;50.916;4.698;2022-12-10T23:13:05;47.45;;;19.50;;
22072;SDS011;11202;50.916;4.698;2022-12-10T23:15:36;42.00;;;19.77;;
22072;SDS011;11202;50.916;4.698;2022-12-10T23:18:03;32.30;;;15.70;;
22072;SDS011;11202;50.916;4.698;2022-12-10T23:20:29;38.08;;;17.90;;
22072;SDS011;11202;50.916;4.698;2022-12-10T23:22:55;38.80;;;18.45;;
22072;SDS011;11202;50.916;4.698;2022-12-10T23:25:21;31.77;;;13.95;;
22072;SDS011;11202;50.916;4.698;2022-12-10T23:27:47;29.15;;;14.38;;
22072;SDS011;11202;50.916;4.698;2022-12-10T23:30:12;41.08;;;18.00;;
22072;SDS011;11202;50.916;4.698;2022-12-10T23:32:38;29.65;;;15.05;;
22072;SDS011;11202;50.916;4.698;2022-12-10T23:35:04;39.50;;;17.92;;
22072;SDS011;11202;50.916;4.698;2022-12-10T23:37:30;32.53;;;16.20;;
22072;SDS011;11202;50.916;4.698;2022-12-10T23:39:56;35.60;;;17.85;;